Flight Track Log - Related Links

Times and Time Zones

All times are in EDT time to prevent confusion due to time zone crossing. See the SWA642 flight status page for this flight to view local times or setup timezone preferences in your user account.

Time Position Orientation Groundspeed Altitude Reporting Facility
EDT Latitude Longitude Course Direction KTS MPH feet Rate Location/Type
Sun 10:28:03 AM 28.0714 -82.5928 324° Northwest 142 163 8,000  Level Miami Center
Sun 10:29:03 AM 28.0169 -82.6533 224° Southwest 176 203 11,100 2,000 Climbing Miami Center
Sun 10:30:03 AM 27.9514 -82.7253 224° Southwest 258 297 12,000 450 Climbing Miami Center
Sun 10:31:03 AM 27.8878 -82.7994 226° Southwest 307 353 12,000 950 Level Miami Center
Sun 10:32:03 AM 27.8444 -82.8886 241° Southwest 324 373 13,900 2,600 Climbing Miami Center
Sun 10:33:03 AM 27.8481 -83.0014 272° West 324 373 17,200 3,100 Climbing Miami Center
Sun 10:34:03 AM 27.8511 -83.1214 272° West 360 414 20,100 3,100 Climbing Miami Center
Sun 10:35:03 AM 27.8731 -83.2422 282° West 388 447 23,400 2,850 Climbing Miami Center
Sun 10:36:03 AM 27.9092 -83.3639 289° West 394 453 25,800 2,721 Climbing Miami Center
Sun 10:39:32 AM 28.0406 -83.7650 290° West 393 452 35,600 2,622 Climbing Jacksonville Center
Sun 10:40:33 AM 28.0733 -83.8664 290° West 371 427 37,600 1,200 Climbing Jacksonville Center
Sun 10:41:32 AM 28.1058 -83.9750 289° West 349 402 38,000 202 Climbing Jacksonville Center
Sun 10:42:32 AM 28.1422 -84.0811 291° West 348 400 38,000  Level Jacksonville Center
Sun 10:43:33 AM 28.1789 -84.1969 290° West 350 403 38,000  Level Jacksonville Center
Sun 10:44:33 AM 28.2131 -84.3058 290° West 344 396 38,000  Level Jacksonville Center
Sun 10:45:32 AM 28.2431 -84.4147 287° West 348 400 38,000  Level Jacksonville Center
Sun 10:46:33 AM 28.2794 -84.5258 290° West 356 410 38,000  Level Jacksonville Center
Sun 10:47:32 AM 28.3133 -84.6397 289° West 361 415 38,000  Level Jacksonville Center
Sun 10:48:33 AM 28.3472 -84.7489 289° West 354 407 38,000 -198 Level Jacksonville Center
Sun 10:49:33 AM 28.3811 -84.8556 290° West 349 402 37,600 -655 Descending Jacksonville Center
Sun 10:50:32 AM 28.4172 -84.9578 292° West 356 410 36,700 -850 Descending Jacksonville Center
Sun 10:51:33 AM 28.4486 -85.0669 288° West 356 410 35,900 -347 Descending Jacksonville Center
Sun 10:52:33 AM 28.4803 -85.1739 289° West 361 415 36,000 50 Climbing Jacksonville Center
Sun 10:53:33 AM 28.5139 -85.2786 290° West 361 415 36,000  Level Jacksonville Center
Sun 10:54:33 AM 28.5453 -85.3858 288° West 356 410 36,000  Level Jacksonville Center
Sun 10:55:33 AM 28.5767 -85.4881 289° West 351 404 36,000  Level Jacksonville Center
Sun 10:56:32 AM 28.6078 -85.5953 288° West 351 404 36,000  Level Jacksonville Center
Sun 10:57:33 AM 28.6411 -85.6981 290° West 351 404 36,000  Level Jacksonville Center
Sun 10:58:33 AM 28.6739 -85.8100 288° West 357 411 36,000  Level Jacksonville Center
Sun 10:59:33 AM 28.7069 -85.9200 289° West 357 411 36,000  Level Jacksonville Center
Sun 11:00:33 AM 28.7397 -86.0250 290° West 357 411 36,000  Level Jacksonville Center
Sun 11:01:33 AM 28.7706 -86.1325 288° West 362 417 36,000  Level Jacksonville Center
Sun 11:02:32 AM 28.8014 -86.2378 289° West 367 422 36,000  Level Jacksonville Center
Sun 11:03:33 AM 28.8339 -86.3456 289° West 367 422 36,000  Level Jacksonville Center
Sun 11:04:33 AM 28.8664 -86.4533 289° West 367 422 36,000  Level Jacksonville Center
Sun 11:05:32 AM 28.8911 -86.5397 288° West 367 422 36,000  Level Jacksonville Center
Sun 11:06:32 AM 28.9292 -86.6667 289° West 367 422 36,000  Level Jacksonville Center
Sun 11:07:33 AM 28.9572 -86.7722 287° West 367 422 36,000  Level Jacksonville Center
Sun 11:08:33 AM 28.9914 -86.8850 289° West 367 422 36,000  Level Jacksonville Center
Sun 11:09:33 AM 29.0236 -86.9908 289° West 367 422 36,000  Level Jacksonville Center
Sun 11:10:33 AM 29.0536 -87.0964 288° West 367 422 36,000  Level Jacksonville Center
Sun 11:12:41 AM 29.1139 -87.3128 288° West 357 411 36,000  Level Houston Center
Sun 11:13:42 AM 29.1453 -87.4192 289° West 356 410 36,000  Level Houston Center
Sun 11:14:44 AM 29.1750 -87.5242 288° West 350 403 36,000  Level Houston Center
Sun 11:15:46 AM 29.2108 -87.6528 288° West 356 410 36,000  Level Houston Center
Sun 11:16:47 AM 29.2414 -87.7586 288° West 352 405 36,000  Level Houston Center
Sun 11:17:49 AM 29.2719 -87.8658 288° West 355 409 36,000  Level Houston Center
Sun 11:18:51 AM 29.3019 -87.9767 287° West 354 407 36,000  Level Houston Center
Sun 11:19:53 AM 29.3308 -88.0778 288° West 360 414 36,000  Level Houston Center
Sun 11:20:54 AM 29.3594 -88.1831 287° West 350 403 36,000  Level Houston Center
Sun 11:21:56 AM 29.3911 -88.2967 288° West 349 402 36,000  Level Houston Center
Sun 11:22:58 AM 29.4181 -88.4178 284° West 353 406 36,000  Level Houston Center
Sun 11:24:00 AM 29.4086 -88.5278 264° West 350 403 36,000  Level Houston Center
Sun 11:25:01 AM 29.4400 -88.6333 289° West 353 406 36,000 -195 Level Houston Center
Sun 11:26:03 AM 29.4714 -88.7389 289° West 354 407 35,600 -1,694 Descending Houston Center
Sun 11:27:05 AM 29.5042 -88.8425 290° West 350 403 32,500 -2,613 Descending Houston Center
Sun 11:28:07 AM 29.5364 -88.9486 289° West 351 404 30,200 -2,488 Descending Houston Center
Sun 11:29:08 AM 29.5756 -89.0819 289° West 367 422 27,400 -2,301 Descending Houston Center
Sun 11:30:20 AM 29.6069 -89.1875 289° West 356 410 25,100 -2,235 Descending Houston Center
Sun 11:30:50 AM 29.6283 -89.2558 290° West 341 392 23,600 -2,538 Descending Houston Center
Sun 11:31:12 AM 29.6372 -89.2856 289° West 338 389 22,900 -2,066 Descending Houston Center
Sun 11:31:51 AM 29.6572 -89.3550 288° West 322 371 21,500 -2,613 Descending Houston Center
Sun 11:32:14 AM 29.6658 -89.3842 289° West 328 377 20,200 -3,949 Descending Houston Center
Sun 11:33:10 AM 29.6917 -89.4922 285° West 349 402 16,300 -3,659 Descending Houston Center
Sun 11:34:17 AM 29.7194 -89.6056 286° West 359 413 12,700 -3,025 Descending Houston Center
Sun 11:35:11 AM 29.7475 -89.7147 287° West 365 420 10,200 -1,513 Descending Houston Center
Sun 11:36:12 AM 29.7719 -89.8164 286° West 285 328 9,800 -983 Descending Houston Center
Sun 11:37:07 AM 29.7889 -89.8875 285° West 257 296 8,300 -1,800 Descending Houston Center
Sun 11:37:22 AM 29.7961 -89.9119 289° West 274 315 7,700 -1,889 Descending Houston Center
Sun 11:38:01 AM 29.8081 -89.9636 285° West 271 312 6,600 -1,742 Descending Houston Center
Sun 11:38:24 AM 29.8164 -89.9964 286° West 273 314 5,900 -1,808 Descending Houston Center
Sun 11:39:14 AM 29.8322 -90.0656 285° West 268 308 4,400 -1,818 Descending Houston Center
Sun 11:40:03 AM 29.8489 -90.1294 287° West 264 304 2,900 -1,541 Descending Houston Center
Sun 11:40:28 AM 29.8578 -90.1603 288° West 268 308 2,500 -800 Descending Houston Center
Sun 11:41:03 AM 29.8806 -90.2097 298° West 256 295 2,100 -387 Descending Houston Center
Sun 11:41:30 AM 29.8911 -90.2289 302° West 252 290 2,100 -295 Level Houston Center
Sun 11:42:04 AM 29.9094 -90.2639 301° West 162 186 1,800 -774 Descending Houston Center
Sun 11:42:32 AM 29.9219 -90.2711 333° Northwest 212 244 1,300 -1,000 Descending Houston Center
Sun 11:42:52 AM 29.9367 -90.2675 12° North 125 144 1,000 -774 Descending Houston Center
Sun 11:43:34 AM 29.9578 -90.2606 16° North 165 190 500 -787 Descending Houston Center
Sun 11:43:53 AM 29.9719 -90.2564 14° North 126 145 200 -947 Descending Houston Center
Sun 11:45:00 AM 29.9833 -90.2500 305° West  Level FlightAware Approximate
Sun 11:52:00 AM 29.9934 -90.2580 305° West  Level Estimated

Login

Don't have an account? Register now (free) for customized features, flight alerts, and more!